Fort Collins, CO

4:30 PM MDT on August 24, 2016 (GMT -0600)
Fort Collins-Loveland Municipal

Weather History for KFNL - December, 2014

Change the Weather History Date:

Tuesday, December 23, 2014

  Actual Average Record
Temperature  
Mean Temperature 27 °F -  
Max Temperature 37 °F - 57 °F (2005)
Min Temperature 17 °F - -7 °F (1998)
Degree Days  
Heating Degree Days 38    
Month to date heating degree days  
Cooling Degree Days 0    
Month to date cooling degree days  
Moisture  
Dew Point 9 °F    
Average Humidity 41    
Maximum Humidity 68    
Minimum Humidity 28    
Precipitation  
Precipitation 0.00 in - 0.04 in (2015)
Sea Level Pressure  
Sea Level Pressure 30.08 in    
Wind  
Wind Speed 20 mph (NNW)    
Max Wind Speed 36 mph    
Max Gust Speed 50 mph    
Visibility 10 miles    
Events      
T = Trace of Precipitation, MM = Missing Value Source: NWS Daily Summary

Daily Weather History Graph

Daily Weather History Graph

Search for Another Location

Airport or City:

Trip Planner

Search our weather history database for the weather conditions in past years. The results will help you decide how hot, cold, wet, or windy it might be!

Date:

Astronomy

Dec. 23, 2014 Rise Set
Actual Time 7:20 AM MST 4:37 PM MST
Civil Twilight 6:49 AM MST 5:08 PM MST
Nautical Twilight 6:15 AM MST 5:42 PM MST
Astronomical Twilight 5:42 AM MST 6:16 PM MST
Moon 8:27 AM MST (12/23) 6:56 PM MST (12/23)
Length of Visible Light 10h 18m
Length of Day
9h 17m
Waxing Crescent, 4% of the Moon is Illuminated
Dec 23
Waxing Crescent
Dec 28
First Quarter
Jan 4
Full
Jan 13
Last Quarter
Jan 20
New

Hourly Weather History & Observations

Time (MST) Temp. Windchill Dew Point Humidity Pressure Visibility Wind Dir Wind Speed Gust Speed Precip Events Conditions
12:15 AM 30.2 °F 19.3 °F 12.2 °F 47% 29.89 in 10.0 mi NW 15.0 mph - N/A   Clear
12:35 AM 30.2 °F 18.5 °F 12.2 °F 47% 29.89 in 10.0 mi NW 17.3 mph 23.0 mph N/A   Clear
12:55 AM 32.0 °F 19.2 °F 14.0 °F 48% 29.90 in 10.0 mi NW 23.0 mph 31.1 mph N/A   Clear
1:15 AM 32.0 °F 20.5 °F 12.2 °F 44% 29.90 in 10.0 mi NW 18.4 mph 27.6 mph N/A   Clear
1:35 AM 32.0 °F 19.2 °F 12.2 °F 44% 29.91 in 10.0 mi NNW 23.0 mph 28.8 mph N/A   Clear
1:55 AM 32.0 °F 19.8 °F 12.2 °F 44% 29.92 in 10.0 mi NW 20.7 mph 25.3 mph N/A   Clear
2:15 AM 32.0 °F 20.8 °F 12.2 °F 44% 29.93 in 10.0 mi NW 17.3 mph 27.6 mph N/A   Clear
2:35 AM 32.0 °F 20.1 °F 12.2 °F 44% 29.94 in 10.0 mi NNW 19.6 mph 25.3 mph N/A   Clear
2:55 AM 32.0 °F 19.8 °F 10.4 °F 41% 29.94 in 10.0 mi NNW 20.7 mph 25.3 mph N/A   Clear
3:15 AM 32.0 °F 19.2 °F 10.4 °F 41% 29.94 in 10.0 mi NW 23.0 mph 29.9 mph N/A   Clear
3:35 AM 32.0 °F 17.9 °F 10.4 °F 41% 29.95 in 10.0 mi NNW 28.8 mph 42.6 mph N/A   Clear
3:55 AM 32.0 °F 18.6 °F 10.4 °F 41% 29.96 in 10.0 mi NNW 25.3 mph 38.0 mph N/A   Clear
4:15 AM 30.2 °F 17.4 °F 10.4 °F 44% 29.97 in 10.0 mi NNW 20.7 mph 28.8 mph N/A   Clear
4:35 AM 30.2 °F 17.1 °F 10.4 °F 44% 29.97 in 10.0 mi NNW 21.9 mph 31.1 mph N/A   Clear
4:55 AM 30.2 °F 18.5 °F 10.4 °F 44% 29.99 in 10.0 mi NNW 17.3 mph 26.5 mph N/A   Clear
5:15 AM 30.2 °F 19.3 °F 10.4 °F 44% 30.00 in 10.0 mi NW 15.0 mph 23.0 mph N/A   Clear
5:35 AM 30.2 °F 18.9 °F 8.6 °F 40% 30.01 in 10.0 mi NW 16.1 mph 25.3 mph N/A   Clear
5:55 AM 30.2 °F 16.8 °F 8.6 °F 40% 30.02 in 10.0 mi NNW 23.0 mph 31.1 mph N/A   Clear
6:15 AM 30.2 °F 15.7 °F 8.6 °F 40% 30.03 in 10.0 mi NW 27.6 mph 38.0 mph N/A   Clear
6:35 AM 32.0 °F 18.9 °F 8.6 °F 38% 30.03 in 10.0 mi NNW 24.2 mph 34.5 mph N/A   Clear
6:55 AM 30.2 °F 16.5 °F 8.6 °F 40% 30.05 in 10.0 mi NW 24.2 mph 36.8 mph N/A   Clear
7:15 AM 30.2 °F 17.4 °F 6.8 °F 37% 30.06 in 10.0 mi NNW 20.7 mph 28.8 mph N/A   Clear
7:35 AM 30.2 °F 17.4 °F 8.6 °F 40% 30.07 in 10.0 mi NNW 20.7 mph 29.9 mph N/A   Clear
7:55 AM 30.2 °F 16.8 °F 8.6 °F 40% 30.08 in 10.0 mi NNW 23.0 mph 35.7 mph N/A   Clear
8:15 AM 32.0 °F 17.2 °F 8.6 °F 38% 30.09 in 10.0 mi NNW 32.2 mph 38.0 mph N/A   Clear
8:35 AM 33.8 °F 20.1 °F 8.6 °F 35% 30.10 in 10.0 mi NNW 29.9 mph 43.7 mph N/A   Clear
8:55 AM 33.8 °F 19.0 °F 10.4 °F 38% 30.11 in 10.0 mi NNW 35.7 mph 44.9 mph N/A   Clear
9:15 AM 33.8 °F 19.9 °F 10.4 °F 38% 30.12 in 10.0 mi NNW 31.1 mph 47.2 mph N/A   Partly Cloudy
9:35 AM 35.6 °F 22.1 °F 10.4 °F 35% 30.13 in 10.0 mi NNW 32.2 mph 48.3 mph N/A   Partly Cloudy
9:55 AM - - - N/A% 30.14 in 10.0 mi NNW 35.7 mph 49.5 mph N/A   Clear
10:15 AM 35.6 °F 21.7 °F 10.4 °F 35% 30.15 in 10.0 mi NNW 34.5 mph 40.3 mph N/A   Clear
10:35 AM 35.6 °F 22.1 °F 10.4 °F 35% 30.15 in 10.0 mi NNW 32.2 mph 41.4 mph N/A   Clear
10:55 AM 35.6 °F 23.4 °F 10.4 °F 35% 30.15 in 10.0 mi NNW 25.3 mph 39.1 mph N/A   Clear
11:15 AM 35.6 °F 22.1 °F 10.4 °F 35% 30.15 in 10.0 mi NNW 32.2 mph 39.1 mph N/A   Clear
11:35 AM 35.6 °F 22.1 °F 10.4 °F 35% 30.15 in 10.0 mi NNW 32.2 mph 40.3 mph N/A   Clear
11:55 AM 37.4 °F 25.4 °F 8.6 °F 30% 30.15 in 10.0 mi NNW 27.6 mph 42.6 mph N/A   Clear
12:15 PM 37.4 °F 25.2 °F 8.6 °F 30% 30.15 in 10.0 mi NW 28.8 mph 42.6 mph N/A   Clear
12:35 PM 37.4 °F 25.9 °F 8.6 °F 30% 30.14 in 10.0 mi NW 25.3 mph 43.7 mph N/A   Clear
12:55 PM 37.4 °F 24.4 °F 8.6 °F 30% 30.14 in 10.0 mi NW 33.4 mph 40.3 mph N/A   Clear
1:15 PM 37.4 °F 24.8 °F 8.6 °F 30% 30.13 in 10.0 mi NW 31.1 mph 40.3 mph N/A   Clear
1:35 PM 37.4 °F 24.2 °F 8.6 °F 30% 30.13 in 10.0 mi NNW 34.5 mph 43.7 mph N/A   Clear
1:55 PM 37.4 °F 25.0 °F 6.8 °F 28% 30.13 in 10.0 mi NNW 29.9 mph 41.4 mph N/A   Clear
2:15 PM 37.4 °F 24.8 °F 6.8 °F 28% 30.14 in 10.0 mi NW 31.1 mph 41.4 mph N/A   Clear
2:35 PM 37.4 °F 25.4 °F 6.8 °F 28% 30.15 in 10.0 mi NNW 27.6 mph 38.0 mph N/A   Clear
2:55 PM 35.6 °F 22.5 °F 6.8 °F 30% 30.15 in 10.0 mi NNW 29.9 mph 38.0 mph N/A   Clear
3:15 PM 35.6 °F 23.4 °F 6.8 °F 30% 30.15 in 10.0 mi North 25.3 mph 39.1 mph N/A   Clear
3:35 PM 35.6 °F 24.0 °F 6.8 °F 30% 30.15 in 10.0 mi North 23.0 mph 28.8 mph N/A   Clear
3:55 PM 33.8 °F 22.8 °F 5.0 °F 30% 30.15 in 10.0 mi NNW 18.4 mph 27.6 mph N/A   Clear
4:15 PM 33.8 °F 22.5 °F 5.0 °F 30% 30.16 in 10.0 mi NNW 19.6 mph 24.2 mph N/A   Clear
4:35 PM 32.0 °F 21.2 °F 5.0 °F 32% 30.16 in 10.0 mi NNW 16.1 mph - N/A   Clear
4:55 PM 30.2 °F 20.2 °F 5.0 °F 34% 30.16 in 10.0 mi NNW 12.7 mph - N/A   Clear
5:15 PM 30.2 °F 23.4 °F 6.8 °F 37% 30.15 in 10.0 mi North 6.9 mph 18.4 mph N/A   Clear
5:35 PM 26.6 °F 17.5 °F 3.2 °F 37% 30.16 in 10.0 mi North 9.2 mph - N/A   Clear
5:55 PM 26.6 °F 17.5 °F 5.0 °F 40% 30.16 in 10.0 mi NNW 9.2 mph - N/A   Clear
6:15 PM 26.6 °F 17.5 °F 5.0 °F 40% 30.16 in 10.0 mi NNW 9.2 mph - N/A   Clear
6:35 PM 24.8 °F 16.9 °F 5.0 °F 43% 30.16 in 10.0 mi North 6.9 mph - N/A   Clear
6:55 PM 24.8 °F 16.1 °F 5.0 °F 43% 30.16 in 10.0 mi NNW 8.1 mph - N/A   Clear
7:15 PM 24.8 °F 15.3 °F 6.8 °F 46% 30.16 in 10.0 mi NNW 9.2 mph - N/A   Clear
7:35 PM 24.8 °F 12.9 °F 8.6 °F 50% 30.16 in 10.0 mi NNW 13.8 mph - N/A   Clear
7:55 PM 26.6 °F 16.8 °F 8.6 °F 47% 30.15 in 10.0 mi North 10.4 mph 18.4 mph N/A   Clear
8:15 PM 23.0 °F 13.1 °F 6.8 °F 50% 30.15 in 10.0 mi North 9.2 mph - N/A   Clear
8:35 PM 23.0 °F 12.4 °F 8.6 °F 54% 30.14 in 10.0 mi North 10.4 mph - N/A   Clear
8:55 PM 23.0 °F 13.1 °F 8.6 °F 54% 30.13 in 10.0 mi North 9.2 mph - N/A   Clear
9:15 PM 21.2 °F 16.4 °F 8.6 °F 58% 30.13 in 10.0 mi NNW 3.5 mph - N/A   Clear
9:35 PM 19.4 °F 11.5 °F 6.8 °F 58% 30.13 in 10.0 mi West 5.8 mph - N/A   Clear
9:55 PM 19.4 °F 14.3 °F 6.8 °F 58% 30.13 in 10.0 mi West 3.5 mph - N/A   Clear
10:15 PM 21.2 °F - 8.6 °F 58% 30.12 in 10.0 mi Calm Calm - N/A   Clear
10:35 PM 21.2 °F 11.7 °F 10.4 °F 63% 30.11 in 10.0 mi SSW 8.1 mph - N/A   Clear
10:55 PM 19.4 °F 11.5 °F 8.6 °F 63% 30.12 in 10.0 mi South 5.8 mph - N/A   Clear
11:15 PM 17.6 °F 7.3 °F 3.2 °F 53% 30.10 in 10.0 mi South 8.1 mph - N/A   Clear
11:35 PM 17.6 °F - 8.6 °F 68% 30.10 in 10.0 mi Calm Calm - N/A   Clear
11:55 PM 19.4 °F 14.3 °F 8.6 °F 63% 30.10 in 10.0 mi South 3.5 mph - N/A   Clear